Time;durP1;ratioP1;P1;durP2;ratioP2;P2;SDS_P1;SDS_P2;PMS_P1;PMS_P2;Temp;Humidity;BMP_temperature;BMP_pressure;BME280_temperature;BME280_humidity;BME280_pressure;Samples;Min_cycle;Max_cycle;Signal;HPM_P1;HPM_P2
2022/05/12 05:56:45;;;;;;;2.92;1.52;;;;;;;19.74;48.10;96856.03;6256488;22;20031;-78
2022/05/12 06:02:07;;;;;;;4.63;1.55;;;;;;;19.78;47.84;96866.94;6245713;23;20038;-78
2022/05/12 06:04:35;;;;;;;1.83;1.38;;;;;;;19.81;47.83;96870.94;6247063;23;20500;-78
2022/05/12 06:07:04;;;;;;;7.72;1.52;;;;;;;19.82;48.33;96873.38;6245085;23;20020;-79
2022/05/12 06:09:32;;;;;;;5.22;1.90;;;;;;;19.83;48.13;96880.28;6245877;22;20023;-77
2022/05/12 06:11:59;;;;;;;1.88;1.70;;;;;;;19.83;48.21;96879.47;6245503;23;20111;-80
2022/05/12 06:14:28;;;;;;;9.00;1.90;;;;;;;19.82;48.03;96885.81;6244991;22;20030;-77
2022/05/12 06:16:56;;;;;;;4.28;1.35;;;;;;;19.82;48.42;96891.09;6243850;23;20016;-79
2022/05/12 06:19:24;;;;;;;3.03;1.52;;;;;;;19.83;48.38;96898.81;6245001;22;20024;-78
2022/05/12 06:21:51;;;;;;;2.15;1.40;;;;;;;19.85;48.55;96901.22;6244706;23;20355;-76
2022/05/12 06:24:20;;;;;;;3.35;1.40;;;;;;;19.88;48.44;96909.50;6245260;23;20020;-79
2022/05/12 06:26:47;;;;;;;1.17;1.08;;;;;;;19.91;48.58;96903.72;6248357;23;20024;-80
2022/05/12 06:29:15;;;;;;;3.33;1.50;;;;;;;19.95;48.59;96914.66;6267738;22;20039;-76
2022/05/12 06:31:43;;;;;;;1.58;1.20;;;;;;;19.99;48.53;96912.38;6266061;23;20079;-76
2022/05/12 06:34:10;;;;;;;2.33;1.13;;;;;;;20.00;48.35;96912.13;6254340;23;20329;-79
2022/05/12 06:36:38;;;;;;;3.78;1.42;;;;;;;20.00;48.33;96914.75;6244890;23;20651;-78
2022/05/12 06:39:05;;;;;;;1.60;0.93;;;;;;;20.01;47.89;96912.94;6231429;22;20035;-77
2022/05/12 06:41:34;;;;;;;2.85;1.00;;;;;;;20.01;48.25;96913.75;6242794;22;20024;-76
2022/05/12 06:44:04;;;;;;;3.50;0.90;;;;;;;20.03;48.25;96919.59;6244624;23;20108;-77
2022/05/12 06:46:31;;;;;;;1.35;0.88;;;;;;;20.06;48.07;96920.97;6241837;22;20020;-77
2022/05/12 06:49:02;;;;;;;1.98;1.30;;;;;;;20.09;48.13;96923.94;6246038;22;20020;-76
2022/05/12 06:51:29;;;;;;;3.03;0.98;;;;;;;20.11;48.29;96924.53;6247753;23;20012;-75
2022/05/12 06:53:57;;;;;;;2.08;1.20;;;;;;;20.14;47.84;96917.97;6246707;22;20028;-78
2022/05/12 06:56:24;;;;;;;4.00;0.93;;;;;;;20.16;47.52;96919.34;6243293;22;20020;-78
2022/05/12 06:58:53;;;;;;;4.28;0.80;;;;;;;20.19;47.57;96928.66;6244626;22;20027;-78
2022/05/12 07:01:21;;;;;;;2.85;1.50;;;;;;;20.22;47.42;96930.81;6246440;23;20103;-78
2022/05/12 07:03:49;;;;;;;6.05;0.90;;;;;;;20.26;47.45;96936.47;6245976;22;20020;-79
2022/05/12 07:06:16;;;;;;;3.00;1.23;;;;;;;20.30;47.70;96935.75;6243390;23;20467;-78
2022/05/12 07:08:44;;;;;;;3.05;0.95;;;;;;;20.34;47.39;96944.06;6244334;22;20020;-77
2022/05/12 07:11:12;;;;;;;5.95;1.23;;;;;;;20.37;47.25;96941.72;6244481;22;20028;-78
2022/05/12 07:13:40;;;;;;;2.55;0.90;;;;;;;20.39;46.94;96936.19;6245331;22;20099;-76
2022/05/12 07:16:09;;;;;;;3.35;1.35;;;;;;;20.43;47.05;96941.84;6245880;22;20119;-77
2022/05/12 07:18:38;;;;;;;1.20;0.73;;;;;;;20.44;46.97;96954.81;6247215;23;20031;-76
2022/05/12 07:26:50;;;;;;;4.72;0.90;;;;;;;20.51;47.10;96960.81;6245053;23;20024;-77
2022/05/12 07:29:20;;;;;;;3.35;1.10;;;;;;;20.54;46.90;96959.53;6246740;22;20095;-76
2022/05/12 07:31:49;;;;;;;2.72;0.75;;;;;;;20.53;47.14;96961.38;6247679;23;20344;-77
2022/05/12 07:34:18;;;;;;;1.30;0.80;;;;;;;20.54;47.38;96965.63;6247439;23;20040;-77
2022/05/12 07:36:50;;;;;;;1.42;0.55;;;;;;;20.57;47.24;96969.69;6246585;22;20111;-76
2022/05/12 07:39:18;;;;;;;3.03;0.80;;;;;;;20.59;47.14;96962.28;6247622;22;20030;-77
2022/05/12 07:41:45;;;;;;;3.03;0.77;;;;;;;20.63;47.36;96975.88;6248862;22;20020;-77
2022/05/12 07:44:14;;;;;;;4.93;1.42;;;;;;;20.69;47.43;96977.59;6248719;23;20060;-76
2022/05/12 07:46:42;;;;;;;1.05;0.90;;;;;;;20.73;47.63;96976.09;6246680;23;20074;-75
2022/05/12 07:49:11;;;;;;;2.22;0.88;;;;;;;20.80;47.65;96979.41;6247168;22;20095;-77
2022/05/12 07:51:45;;;;;;;1.73;0.77;;;;;;;20.84;47.32;96979.69;6248020;23;20050;-76
2022/05/12 07:54:13;;;;;;;2.75;1.15;;;;;;;20.87;47.79;96979.25;6247568;23;20024;-77
2022/05/12 07:56:40;;;;;;;0.77;0.77;;;;;;;20.91;47.49;96983.84;6246039;23;20338;-76
2022/05/12 07:59:08;;;;;;;3.15;0.73;;;;;;;20.96;47.53;96983.13;6247677;22;20099;-76
2022/05/12 08:01:38;;;;;;;1.52;1.00;;;;;;;21.02;47.20;97002.59;6247055;22;20048;-77
2022/05/12 08:04:05;;;;;;;3.72;0.70;;;;;;;21.03;46.99;96989.06;6249851;22;20024;-77
2022/05/12 08:06:35;;;;;;;2.63;0.80;;;;;;;21.07;47.07;97000.00;6264952;22;20035;-78
2022/05/12 08:09:02;;;;;;;1.42;1.00;;;;;;;21.09;47.05;97001.38;6262241;22;20031;-76
2022/05/12 08:11:31;;;;;;;2.05;0.93;;;;;;;21.14;46.93;96998.00;6249378;22;20054;-76
2022/05/12 08:13:59;;;;;;;4.22;1.08;;;;;;;21.18;46.97;96993.84;6248977;22;20360;-76
2022/05/12 08:16:27;;;;;;;2.28;0.90;;;;;;;21.22;46.85;96992.31;6247658;22;20060;-75
2022/05/12 08:18:54;;;;;;;4.97;0.98;;;;;;;21.27;46.89;96997.69;6246425;22;20028;-76
2022/05/12 08:21:24;;;;;;;5.07;1.10;;;;;;;21.30;46.94;97001.75;6246094;22;20016;-77
2022/05/12 08:23:53;;;;;;;3.58;0.88;;;;;;;21.30;46.68;96999.88;6248834;23;20051;-75
2022/05/12 08:26:21;;;;;;;5.45;1.23;;;;;;;21.33;46.71;96994.09;6247182;22;20103;-78
2022/05/12 08:28:50;;;;;;;3.97;0.98;;;;;;;21.34;46.27;96989.56;6246976;22;20058;-76
2022/05/12 08:31:20;;;;;;;1.50;0.95;;;;;;;21.35;46.30;96989.34;6245942;22;20094;-77
2022/05/12 08:33:47;;;;;;;2.40;1.02;;;;;;;21.40;46.42;96985.97;6246299;23;20024;-76
2022/05/12 08:36:15;;;;;;;0.68;0.68;;;;;;;21.46;46.30;96989.53;6245074;23;20103;-76
2022/05/12 08:38:44;;;;;;;2.00;1.30;;;;;;;21.52;46.54;96999.19;6246258;23;20020;-77
2022/05/12 08:41:25;;;;;;;0.73;0.73;;;;;;;21.57;46.58;96999.28;6245583;22;20016;-77
2022/05/12 08:43:57;;;;;;;1.85;0.95;;;;;;;21.65;46.29;97000.72;6245064;23;20623;-78
2022/05/12 08:46:26;;;;;;;;;;;;;;;21.70;46.57;97004.25;6244801;23;20062;-78
2022/05/12 08:49:02;;;;;;;1.42;1.23;;;;;;;21.76;46.18;97008.59;6245305;22;19915;-78
2022/05/12 08:51:36;;;;;;;0.88;0.82;;;;;;;21.78;46.03;97001.19;6245182;23;20093;-78
2022/05/12 08:54:08;;;;;;;5.50;1.23;;;;;;;21.80;46.15;96999.09;6244715;23;20023;-77
2022/05/12 08:56:37;;;;;;;2.63;1.20;;;;;;;21.81;46.44;96999.88;6244547;23;20104;-77
2022/05/12 08:59:05;;;;;;;3.78;1.60;;;;;;;21.80;46.34;96999.09;6245293;22;20027;-79
2022/05/12 09:01:41;;;;;;;3.65;1.17;;;;;;;21.81;46.27;97010.50;6244318;22;20478;-78
2022/05/12 09:04:30;;;;;;;1.77;1.08;;;;;;;21.81;46.39;97013.97;6245768;23;20035;-78
2022/05/12 09:07:05;;;;;;;2.00;1.00;;;;;;;21.83;46.10;97010.28;6244244;23;20020;-77
2022/05/12 09:09:40;;;;;;;1.20;1.05;;;;;;;21.86;46.15;97007.13;6245081;22;20079;-79
2022/05/12 09:12:21;;;;;;;3.35;1.20;;;;;;;21.91;46.15;97009.84;6246092;23;20020;-79
2022/05/12 09:14:56;;;;;;;2.00;1.48;;;;;;;21.93;45.98;97019.19;6246642;23;20020;-79
2022/05/12 09:17:31;;;;;;;4.15;1.20;;;;;;;21.95;45.99;97011.78;6244517;23;20026;-79
2022/05/12 09:20:01;;;;;;;2.85;1.27;;;;;;;21.99;46.58;97012.88;6245061;22;20016;-78
2022/05/12 09:22:30;;;;;;;2.58;1.42;;;;;;;22.04;46.73;97014.84;6244394;22;20464;-78
2022/05/12 09:24:58;;;;;;;219.50;21.67;;;;;;;22.10;46.43;97019.16;6245274;23;20020;-77
2022/05/12 09:27:33;;;;;;;10.15;2.20;;;;;;;22.15;46.42;97027.19;6243731;23;20688;-78
2022/05/12 09:30:02;;;;;;;6.18;1.33;;;;;;;22.19;45.73;97027.50;6244521;22;20016;-78
2022/05/12 09:32:32;;;;;;;2.95;1.42;;;;;;;22.24;45.80;97021.47;6244875;22;20062;-77
2022/05/12 09:35:27;;;;;;;1.50;1.38;;;;;;;22.33;50.85;97030.66;6245362;23;20020;-77
2022/05/12 09:37:55;;;;;;;3.50;1.80;;;;;;;22.39;51.53;97024.31;6236462;23;20024;-78
2022/05/12 09:40:34;;;;;;;2.17;1.60;;;;;;;22.42;47.80;97031.81;6244448;22;20021;-77
2022/05/12 09:43:19;;;;;;;1.60;1.00;;;;;;;22.42;47.73;97029.97;6244523;23;20028;-78
2022/05/12 09:46:01;;;;;;;3.30;1.80;;;;;;;22.48;51.30;97016.72;6244491;23;20023;-77
2022/05/12 09:48:31;;;;;;;7.50;1.70;;;;;;;22.51;49.01;97006.41;6244847;23;20463;-78
2022/05/12 09:51:16;;;;;;;2.78;1.50;;;;;;;22.55;51.07;97012.84;6245079;22;20020;-78
2022/05/12 09:53:44;;;;;;;8.65;1.83;;;;;;;22.59;51.96;97015.81;6244938;23;20103;-78
2022/05/12 09:56:28;;;;;;;2.17;1.70;;;;;;;22.63;49.36;97007.09;6242957;22;20558;-78
2022/05/12 09:59:10;;;;;;;3.33;1.58;;;;;;;22.68;52.13;97002.88;6244927;22;20024;-78
2022/05/12 10:01:51;;;;;;;7.55;3.03;;;;;;;22.76;49.89;97005.91;6244329;23;20017;-77
2022/05/12 10:10:02;;;;;;;2.33;1.70;;;;;;;22.80;47.75;97006.19;6222983;22;20020;-80
2022/05/12 10:12:35;;;;;;;1.90;1.50;;;;;;;22.86;47.86;97013.19;6246131;23;20103;-74
2022/05/12 10:15:15;;;;;;;4.15;1.80;;;;;;;22.97;53.09;97009.56;6245420;23;20621;-76
2022/05/12 10:17:46;;;;;;;1.85;1.73;;;;;;;23.02;48.84;97006.19;6243420;23;20031;-76
2022/05/12 10:20:18;;;;;;;5.43;1.50;;;;;;;23.09;55.14;97020.09;6245064;22;20348;-76
2022/05/12 10:22:54;;;;;;;2.35;1.60;;;;;;;23.15;47.82;97015.63;6264811;23;20028;-79
2022/05/12 10:25:35;;;;;;;1.92;1.70;;;;;;;23.20;52.39;97021.00;6266585;23;20031;-76
2022/05/12 10:28:10;;;;;;;4.28;2.20;;;;;;;23.22;55.19;97002.91;6255963;23;20091;-79
2022/05/12 10:30:47;;;;;;;3.15;1.95;;;;;;;23.27;55.33;97010.94;6244716;22;20020;-78
2022/05/12 10:33:25;;;;;;;4.22;1.50;;;;;;;23.31;55.37;97004.06;6243248;23;20611;-77
2022/05/12 10:36:04;;;;;;;1.50;1.40;;;;;;;23.36;51.19;97008.63;6241935;23;20485;-77
2022/05/12 10:38:47;;;;;;;1.95;1.70;;;;;;;23.38;50.35;97015.28;6243138;23;20083;-77
2022/05/12 10:41:19;;;;;;;3.88;1.63;;;;;;;23.42;49.75;97015.59;6243182;23;20490;-78
2022/05/12 10:44:06;;;;;;;6.97;1.90;;;;;;;23.43;49.74;97002.00;6244921;23;20096;-77
2022/05/12 10:46:42;;;;;;;1.95;1.65;;;;;;;23.40;48.05;96994.56;6243777;23;20035;-78
2022/05/12 10:49:19;;;;;;;2.85;1.80;;;;;;;23.44;52.71;97003.63;6243781;22;20031;-76
2022/05/12 10:51:58;;;;;;;3.03;1.90;;;;;;;23.51;51.69;97005.28;6244552;23;20023;-77
2022/05/12 10:54:32;;;;;;;2.80;2.20;;;;;;;23.52;50.89;97004.22;6243880;23;20359;-77
2022/05/12 10:57:12;;;;;;;5.13;2.28;;;;;;;23.50;50.29;96999.13;6244102;23;20020;-78
2022/05/12 10:59:53;;;;;;;2.97;2.20;;;;;;;23.54;48.05;96994.91;6260555;22;20028;-78
2022/05/12 11:02:39;;;;;;;4.43;2.10;;;;;;;23.59;47.99;96991.47;6260476;23;20020;-78
2022/05/12 11:05:13;;;;;;;4.63;2.05;;;;;;;23.63;51.98;96987.25;6244912;23;20034;-78
2022/05/12 11:07:46;;;;;;;1.98;1.75;;;;;;;23.67;50.01;96979.56;6244152;23;20043;-77
2022/05/12 11:10:24;;;;;;;3.63;2.10;;;;;;;23.68;53.51;96975.84;6246606;22;20016;-77
2022/05/12 11:12:55;;;;;;;1.88;1.70;;;;;;;23.70;48.19;96971.84;6246634;23;20021;-77
2022/05/12 11:15:26;;;;;;;4.28;2.25;;;;;;;23.74;48.00;96967.63;6246346;23;20016;-77
2022/05/12 11:17:59;;;;;;;2.45;2.00;;;;;;;23.78;46.79;96967.94;6245913;23;20031;-77
2022/05/12 11:20:32;;;;;;;3.55;2.08;;;;;;;23.84;53.86;96970.38;6246216;22;20024;-77
2022/05/12 11:23:12;;;;;;;3.50;1.95;;;;;;;23.88;49.74;96962.69;6245688;23;20012;-77
2022/05/12 11:25:52;;;;;;;5.30;2.50;;;;;;;23.93;45.61;96956.56;6246284;23;20103;-78
2022/05/12 11:31:21;;;;;;;3.45;2.40;;;;;;;24.04;49.09;96955.56;6246199;23;20051;-77
2022/05/12 11:33:54;;;;;;;3.92;2.00;;;;;;;24.08;45.66;96951.31;6246051;23;20344;-77
2022/05/12 11:36:36;;;;;;;7.15;2.72;;;;;;;24.12;47.86;96951.59;6245287;23;20020;-77
2022/05/12 11:39:23;;;;;;;4.13;2.55;;;;;;;24.19;50.91;96952.97;6246512;22;20095;-77
2022/05/12 11:42:18;;;;;;;5.65;2.60;;;;;;;24.24;49.11;96950.31;6245579;23;20043;-78
2022/05/12 11:45:02;;;;;;;3.00;2.70;;;;;;;24.25;46.73;96943.94;6245528;23;20018;-79
2022/05/12 11:47:56;;;;;;;6.25;2.83;;;;;;;24.29;48.02;96932.75;6241532;23;20078;-78
2022/05/12 11:50:39;;;;;;;6.55;3.17;;;;;;;24.34;49.11;96930.09;6245934;22;20091;-77
2022/05/12 11:53:16;;;;;;;6.05;2.65;;;;;;;24.35;46.29;96937.03;6246207;23;20020;-78
2022/05/12 11:56:01;;;;;;;4.43;2.83;;;;;;;24.41;51.12;96933.31;6245585;23;20102;-78
2022/05/12 11:58:32;;;;;;;4.55;2.70;;;;;;;24.43;49.55;96932.00;6245587;23;20535;-78
2022/05/12 12:01:04;;;;;;;5.90;2.83;;;;;;;24.48;46.26;96928.56;6261176;22;20023;-78
2022/05/12 12:03:46;;;;;;;4.47;2.90;;;;;;;24.53;44.69;96923.22;6289236;22;20018;-78
2022/05/12 12:06:36;;;;;;;4.07;2.70;;;;;;;24.59;46.03;96918.72;6283825;22;20024;-78
2022/05/12 12:09:52;;;;;;;2.92;2.65;;;;;;;24.67;45.51;96924.34;6283283;22;20260;-78
2022/05/12 12:12:56;;;;;;;4.13;3.13;;;;;;;24.71;49.06;96921.97;6252692;22;20016;-79
2022/05/12 12:16:02;;;;;;;3.58;2.90;;;;;;;24.70;45.70;96914.22;6249296;23;20449;-78
2022/05/12 12:18:52;;;;;;;6.20;2.67;;;;;;;24.70;44.36;96916.88;6249545;23;20391;-78
2022/05/12 12:21:36;;;;;;;4.15;2.83;;;;;;;24.70;44.49;96916.88;6256692;22;20027;-78
2022/05/12 12:24:13;;;;;;;2.78;2.28;;;;;;;24.71;46.25;96913.94;6255852;23;20107;-78
2022/05/12 12:26:44;;;;;;;3.10;2.78;;;;;;;24.72;47.05;96917.41;6259695;22;20012;-78
2022/05/12 12:29:17;;;;;;;2.92;2.72;;;;;;;24.73;48.50;96909.16;6245780;23;20392;-77
2022/05/12 12:31:45;;;;;;;;;;;;;;;24.78;47.11;96905.69;6245648;22;20030;-78
2022/05/12 12:34:17;;;;;;;5.03;2.72;;;;;;;24.79;47.23;96901.94;6245914;23;19915;-77
2022/05/12 12:36:57;;;;;;;4.80;2.87;;;;;;;24.83;44.24;96903.00;6244448;23;20408;-78
2022/05/12 12:39:40;;;;;;;3.40;2.72;;;;;;;24.88;48.76;96900.34;6245656;23;20051;-77
2022/05/12 12:42:23;;;;;;;3.10;2.60;;;;;;;24.89;46.47;96896.63;6246164;22;20031;-78
2022/05/12 12:44:53;;;;;;;5.70;3.10;;;;;;;24.88;49.85;96908.34;6245104;23;20028;-76
2022/05/12 12:47:33;;;;;;;6.63;3.10;;;;;;;24.86;44.08;96902.47;6244318;22;20055;-78
2022/05/12 12:50:09;;;;;;;2.90;2.70;;;;;;;24.89;43.44;96896.63;6245297;23;20393;-77
2022/05/12 12:52:42;;;;;;;5.18;2.83;;;;;;;24.91;43.39;96899.81;6245143;23;20448;-78
2022/05/12 12:58:04;;;;;;;2.90;2.50;;;;;;;24.96;47.78;96907.03;6245382;23;20027;-78
2022/05/12 13:00:35;;;;;;;7.47;2.88;;;;;;;24.97;44.63;96897.94;6245514;22;20028;-78
2022/05/12 13:03:05;;;;;;;4.13;2.72;;;;;;;24.96;43.08;96899.81;6246011;23;20026;-78
2022/05/12 13:05:36;;;;;;;6.40;2.92;;;;;;;24.97;43.22;96888.09;6246290;23;20399;-77
2022/05/12 13:08:08;;;;;;;5.03;3.05;;;;;;;24.99;42.20;96880.63;6243571;23;20482;-77
2022/05/12 13:10:44;;;;;;;4.90;2.83;;;;;;;25.02;42.40;96877.41;6245408;22;20024;-78
2022/05/12 13:13:12;;;;;;;3.60;2.60;;;;;;;25.04;42.55;96877.94;6246615;23;20020;-78
2022/05/12 13:15:44;;;;;;;9.27;4.32;;;;;;;25.07;42.13;96882.72;6246571;23;20044;-78
2022/05/12 13:18:22;;;;;;;3.85;2.70;;;;;;;25.11;43.39;96876.88;6246998;23;20059;-78
2022/05/12 13:20:58;;;;;;;7.15;2.92;;;;;;;25.14;44.80;96876.31;6246772;22;20020;-77
2022/05/12 13:23:29;;;;;;;7.30;2.95;;;;;;;25.14;44.06;96865.66;6249466;22;20048;-78
2022/05/12 13:26:00;;;;;;;5.30;2.85;;;;;;;25.12;43.16;96857.91;6256283;23;20020;-78
2022/05/12 13:28:30;;;;;;;2.92;2.72;;;;;;;25.10;48.61;96857.38;6253076;23;20016;-78
2022/05/12 13:31:15;;;;;;;3.33;3.00;;;;;;;25.08;48.40;96859.53;6247879;22;20094;-78
2022/05/12 13:34:00;;;;;;;3.47;2.50;;;;;;;25.10;45.66;96854.69;6248960;23;20360;-77
2022/05/12 13:36:31;;;;;;;3.67;2.80;;;;;;;25.11;46.89;96861.66;6248951;23;20020;-79
2022/05/12 13:39:00;;;;;;;3.78;3.40;;;;;;;25.13;49.21;96858.72;6248624;23;20052;-78
2022/05/12 13:41:31;;;;;;;3.78;2.97;;;;;;;25.12;44.07;96851.78;6256255;22;20072;-78
2022/05/12 13:44:07;;;;;;;4.43;2.63;;;;;;;25.09;43.11;96863.78;6268519;23;20020;-78
2022/05/12 13:46:36;;;;;;;4.80;2.85;;;;;;;25.08;42.70;96851.53;6267233;23;20075;-78
2022/05/12 13:49:07;;;;;;;4.68;2.90;;;;;;;25.13;44.35;96850.72;6256077;23;20028;-78
2022/05/12 13:52:15;;;;;;;3.58;3.20;;;;;;;25.17;45.95;96849.13;6246235;22;20099;-78
2022/05/12 13:55:03;;;;;;;6.25;3.15;;;;;;;25.17;43.49;96833.88;6228064;22;20490;-78
2022/05/12 13:57:35;;;;;;;6.97;2.80;;;;;;;25.18;45.67;96835.47;6244271;23;20103;-78
2022/05/12 14:00:19;;;;;;;3.17;2.67;;;;;;;25.18;43.00;96845.38;6250840;23;20024;-76
2022/05/12 14:02:50;;;;;;;3.75;3.00;;;;;;;25.14;43.30;96841.63;6251498;23;20122;-78
2022/05/12 14:05:27;;;;;;;6.30;3.03;;;;;;;25.13;42.52;96837.38;6253696;23;20086;-78
2022/05/12 14:08:04;;;;;;;4.25;3.20;;;;;;;25.11;43.83;96839.50;6251756;23;20027;-77
2022/05/12 14:10:35;;;;;;;6.68;3.08;;;;;;;25.11;44.14;96839.50;6250012;22;20462;-78
2022/05/12 14:21:26;;;;;;;6.30;2.78;;;;;;;24.99;47.39;96816.56;6245916;22;20016;-77
2022/05/12 14:23:54;;;;;;;4.78;2.70;;;;;;;24.96;44.41;96822.44;6253029;23;20055;-78
2022/05/12 14:26:23;;;;;;;6.00;2.70;;;;;;;24.93;46.67;96822.97;6252541;22;20024;-78
2022/05/12 14:28:50;;;;;;;3.25;2.95;;;;;;;24.91;45.82;96817.09;6248943;22;20078;-78
2022/05/12 14:31:21;;;;;;;4.60;2.85;;;;;;;24.91;43.17;96822.44;6245365;22;20020;-77
2022/05/12 14:33:49;;;;;;;4.30;2.50;;;;;;;24.91;45.69;96809.09;6245668;23;20024;-78
2022/05/12 14:36:16;;;;;;;6.43;2.70;;;;;;;24.90;45.46;96812.03;6245068;23;20020;-77
2022/05/12 14:38:45;;;;;;;4.97;2.78;;;;;;;24.88;47.90;96812.28;6245081;23;20028;-77
2022/05/12 14:41:13;;;;;;;3.20;2.58;;;;;;;24.84;44.57;96804.03;6244683;22;20482;-78
2022/05/12 14:43:42;;;;;;;4.47;2.75;;;;;;;24.84;46.85;96804.03;6255433;22;20024;-77
2022/05/12 14:46:10;;;;;;;5.82;4.05;;;;;;;24.86;45.92;96812.59;6245839;23;20066;-78
2022/05/12 14:48:44;;;;;;;3.00;2.70;;;;;;;24.86;43.90;96795.75;6246983;22;20096;-77
2022/05/12 14:51:12;;;;;;;6.85;3.58;;;;;;;24.88;47.73;96805.09;6246645;22;20102;-78
2022/05/12 14:53:40;;;;;;;7.35;4.20;;;;;;;24.91;49.65;96795.75;6260910;23;20024;-78
2022/05/12 14:56:08;;;;;;;6.60;3.45;;;;;;;24.92;48.18;96797.34;6254497;23;20104;-78
2022/05/12 14:58:37;;;;;;;3.60;2.83;;;;;;;24.91;45.02;96801.09;6251353;23;20102;-78
2022/05/12 15:01:07;;;;;;;5.38;3.15;;;;;;;24.88;45.29;96805.09;6250823;22;20543;-78
2022/05/12 15:03:36;;;;;;;6.70;3.35;;;;;;;24.83;45.45;96806.97;6249608;23;20019;-77
2022/05/12 15:06:05;;;;;;;3.95;2.97;;;;;;;24.80;45.50;96794.97;6268726;22;20047;-78
2022/05/12 15:08:33;;;;;;;3.50;2.38;;;;;;;24.78;47.02;96793.66;6261354;22;20076;-78
2022/05/12 15:11:00;;;;;;;9.50;2.40;;;;;;;24.78;45.82;96793.66;6256814;22;20095;-78
2022/05/12 15:13:28;;;;;;;5.65;3.42;;;;;;;24.77;43.53;96789.34;6248218;22;20051;-78
2022/05/12 15:15:56;;;;;;;3.83;2.58;;;;;;;24.77;44.80;96790.16;6245934;23;20099;-77
2022/05/12 15:18:25;;;;;;;5.65;3.50;;;;;;;24.76;46.81;96791.22;6246644;22;20325;-77
2022/05/12 15:20:52;;;;;;;5.22;3.10;;;;;;;24.75;48.37;96788.81;6247176;22;20024;-78
2022/05/12 15:23:24;;;;;;;2.70;2.47;;;;;;;24.72;46.85;96784.03;6247461;23;20082;-78
2022/05/12 15:25:51;;;;;;;3.75;2.38;;;;;;;24.71;44.28;96787.75;6246232;22;20016;-77
2022/05/12 15:28:24;;;;;;;3.83;3.25;;;;;;;24.67;47.90;96785.63;6246525;22;20046;-78
2022/05/12 15:30:54;;;;;;;8.32;2.30;;;;;;;24.65;44.22;96779.75;6252021;22;20028;-76
2022/05/12 15:33:24;;;;;;;6.00;3.15;;;;;;;24.66;45.37;96784.06;6257576;23;20031;-78
2022/05/12 15:35:55;;;;;;;5.88;2.67;;;;;;;24.67;48.37;96782.97;6253950;22;20094;-77
2022/05/12 15:38:24;;;;;;;3.65;2.70;;;;;;;24.68;48.58;96778.44;6249494;23;20051;-78
2022/05/12 15:40:52;;;;;;;2.72;2.08;;;;;;;24.67;44.68;96780.31;6245764;22;20107;-77
2022/05/12 15:43:20;;;;;;;3.10;2.35;;;;;;;24.67;46.99;96780.31;6245721;22;20274;-77
2022/05/12 15:45:48;;;;;;;3.78;2.10;;;;;;;24.65;45.58;96784.31;6246052;22;20143;-77
2022/05/12 15:48:19;;;;;;;4.20;2.40;;;;;;;24.62;48.42;96785.66;6247580;22;20103;-77
2022/05/12 15:50:49;;;;;;;4.28;2.67;;;;;;;24.60;46.73;96782.44;6246232;22;20026;-78
2022/05/12 15:53:24;;;;;;;3.40;2.60;;;;;;;24.57;48.78;96780.28;6251453;23;20024;-77
2022/05/12 15:55:52;;;;;;;3.05;2.72;;;;;;;24.53;46.50;96776.56;6254490;23;20054;-76
2022/05/12 15:58:20;;;;;;;6.18;2.45;;;;;;;24.50;47.97;96771.78;6255756;23;20110;-76
2022/05/12 16:00:47;;;;;;;4.90;2.40;;;;;;;24.47;46.07;96767.75;6255059;22;20024;-78
2022/05/12 16:03:16;;;;;;;2.63;2.10;;;;;;;24.43;47.23;96769.34;6249516;23;20024;-77
2022/05/12 16:05:46;;;;;;;5.75;3.58;;;;;;;24.41;46.53;96768.81;6246640;22;20345;-76
2022/05/12 16:08:15;;;;;;;7.28;2.70;;;;;;;24.39;50.64;96772.81;6245919;23;20024;-77
2022/05/12 16:10:48;;;;;;;3.65;2.25;;;;;;;24.37;49.73;96773.06;6246252;22;20020;-78
2022/05/12 16:13:21;;;;;;;3.58;2.30;;;;;;;24.32;48.62;96769.63;6245613;23;20474;-77
2022/05/12 16:15:49;;;;;;;2.20;2.00;;;;;;;24.30;49.06;96769.88;6244901;23;20099;-76
2022/05/12 16:18:17;;;;;;;16.52;2.30;;;;;;;24.30;48.21;96771.75;6245127;23;20076;-76
2022/05/12 16:20:45;;;;;;;5.82;2.38;;;;;;;24.26;46.03;96772.25;6245549;22;20490;-77
2022/05/12 16:23:12;;;;;;;5.90;2.72;;;;;;;24.24;46.68;96774.38;6257409;22;20052;-78
2022/05/12 16:25:47;;;;;;;8.68;2.75;;;;;;;24.25;50.29;96778.66;6253443;23;20036;-78
2022/05/12 16:28:21;;;;;;;11.15;2.97;;;;;;;24.23;48.55;96791.47;6246729;23;20391;-78
2022/05/12 16:30:51;;;;;;;3.30;2.30;;;;;;;24.19;47.59;96786.91;6247270;22;20119;-78
2022/05/12 16:33:19;;;;;;;5.72;2.58;;;;;;;24.16;48.79;96782.94;6264108;22;20051;-78
2022/05/12 16:35:48;;;;;;;2.65;2.42;;;;;;;24.14;45.77;96778.91;6261377;22;20032;-78
2022/05/12 16:38:16;;;;;;;2.03;1.92;;;;;;;24.12;46.82;96778.34;6268447;22;20072;-78
2022/05/12 16:40:45;;;;;;;5.20;3.05;;;;;;;24.10;50.49;96772.53;6268377;22;20044;-77
2022/05/12 16:43:13;;;;;;;2.50;2.30;;;;;;;24.06;48.94;96778.34;6267224;22;20012;-78
2022/05/12 16:45:44;;;;;;;4.03;2.70;;;;;;;24.04;46.55;96774.38;6269363;22;20058;-78
2022/05/12 16:48:14;;;;;;;3.22;2.40;;;;;;;23.98;46.82;96780.75;6273725;22;20023;-78
2022/05/12 16:50:44;;;;;;;3.78;2.50;;;;;;;23.94;48.80;96788.47;6272274;22;20004;-78
2022/05/12 16:53:12;;;;;;;5.80;2.90;;;;;;;23.93;51.71;96799.38;6271553;22;20448;-78
2022/05/12 16:55:40;;;;;;;2.55;2.35;;;;;;;23.89;50.50;96798.31;6269576;22;20076;-78
2022/05/12 16:58:10;;;;;;;5.13;2.70;;;;;;;23.83;49.99;96800.97;6268191;22;20028;-78
2022/05/12 17:00:55;;;;;;;6.30;2.70;;;;;;;23.79;51.54;96797.22;6267617;22;20103;-78
2022/05/12 17:03:26;;;;;;;;;;;;;;;23.77;49.99;96803.88;6267189;23;20039;-78
2022/05/12 17:05:54;;;;;;;3.80;2.22;;;;;;;23.69;48.21;96805.13;6268633;22;19951;-78
2022/05/12 17:08:26;;;;;;;4.85;2.25;;;;;;;23.61;48.27;96816.28;6271824;22;20012;-78
2022/05/12 17:10:54;;;;;;;6.35;2.65;;;;;;;23.54;50.76;96826.38;6267310;22;20036;-77
2022/05/12 17:13:23;;;;;;;4.93;2.80;;;;;;;23.47;50.54;96833.81;6268382;22;20020;-76
2022/05/12 17:15:51;;;;;;;7.65;2.33;;;;;;;23.41;48.65;96840.94;6266196;22;20043;-78
2022/05/12 17:18:19;;;;;;;5.88;2.78;;;;;;;23.31;49.13;96855.00;6270960;22;20008;-78
2022/05/12 17:20:46;;;;;;;2.90;2.50;;;;;;;23.24;50.08;96883.69;6267674;22;20024;-78
2022/05/12 17:23:14;;;;;;;6.13;2.55;;;;;;;23.15;50.25;96895.88;6268507;22;20024;-78
2022/05/12 17:25:43;;;;;;;2.70;2.47;;;;;;;23.03;50.41;96904.84;6269059;22;20071;-78
2022/05/12 17:28:11;;;;;;;4.22;2.72;;;;;;;22.96;52.70;96920.19;6263103;22;20078;-78
2022/05/12 17:30:40;;;;;;;5.63;2.40;;;;;;;22.90;53.35;96945.13;6266429;22;20076;-77
2022/05/12 17:33:08;;;;;;;3.47;2.92;;;;;;;22.82;51.12;96941.06;6265800;22;20024;-78
2022/05/12 17:35:36;;;;;;;10.15;3.28;;;;;;;22.69;51.60;96976.03;6261812;22;20008;-78
2022/05/12 17:38:03;;;;;;;5.18;3.40;;;;;;;22.58;56.48;96999.03;6264931;22;20031;-78
2022/05/12 17:40:32;;;;;;;6.68;4.10;;;;;;;22.49;56.77;97005.06;6265298;22;20528;-78
2022/05/12 17:43:00;;;;;;;5.38;3.25;;;;;;;22.33;57.22;96990.78;6261324;23;20051;-78
2022/05/12 17:45:28;;;;;;;8.80;3.08;;;;;;;22.19;56.13;96969.88;6254810;22;20035;-77
2022/05/12 17:47:57;;;;;;;3.63;3.15;;;;;;;22.12;58.54;96969.22;6252440;23;20359;-78
2022/05/12 17:50:25;;;;;;;5.93;4.00;;;;;;;22.05;60.60;96979.25;6245684;22;20356;-77
2022/05/12 17:52:53;;;;;;;4.18;3.13;;;;;;;22.02;61.06;96998.34;6245562;23;20020;-77
2022/05/12 17:55:20;;;;;;;43.85;34.20;;;;;;;21.96;62.08;97009.94;6244400;22;20022;-77
2022/05/12 17:57:48;;;;;;;18.13;13.50;;;;;;;21.91;62.65;97004.53;6243932;22;20447;-77
2022/05/12 18:00:18;;;;;;;18.23;11.98;;;;;;;21.85;63.67;97010.84;6245076;22;20447;-78
